sensor_id;sensor_type;location;lat;lon;timestamp;P1;durP1;ratioP1;P2;durP2;ratioP2
51122;SDS011;37162;41.724;13.346;2023-02-28T00:02:14;5.25;;;3.78;;
51122;SDS011;37162;41.724;13.346;2023-02-28T00:04:42;5.32;;;3.50;;
51122;SDS011;37162;41.724;13.346;2023-02-28T00:07:08;6.95;;;3.95;;
51122;SDS011;37162;41.724;13.346;2023-02-28T00:09:33;4.22;;;3.42;;
51122;SDS011;37162;41.724;13.346;2023-02-28T00:11:59;3.70;;;3.08;;
51122;SDS011;37162;41.724;13.346;2023-02-28T00:14:24;5.38;;;3.47;;
51122;SDS011;37162;41.724;13.346;2023-02-28T00:16:50;4.97;;;3.60;;
51122;SDS011;37162;41.724;13.346;2023-02-28T00:19:15;4.68;;;3.38;;
51122;SDS011;37162;41.724;13.346;2023-02-28T00:21:40;5.00;;;3.67;;
51122;SDS011;37162;41.724;13.346;2023-02-28T00:24:06;3.95;;;3.33;;
51122;SDS011;37162;41.724;13.346;2023-02-28T00:26:32;4.20;;;3.03;;
51122;SDS011;37162;41.724;13.346;2023-02-28T00:28:57;3.88;;;3.22;;
51122;SDS011;37162;41.724;13.346;2023-02-28T00:31:22;3.60;;;3.03;;
51122;SDS011;37162;41.724;13.346;2023-02-28T00:33:48;6.30;;;3.90;;
51122;SDS011;37162;41.724;13.346;2023-02-28T00:36:14;4.80;;;3.53;;
51122;SDS011;37162;41.724;13.346;2023-02-28T00:38:40;4.65;;;3.00;;
51122;SDS011;37162;41.724;13.346;2023-02-28T00:41:05;5.70;;;3.30;;
51122;SDS011;37162;41.724;13.346;2023-02-28T00:43:32;4.50;;;3.38;;
51122;SDS011;37162;41.724;13.346;2023-02-28T00:45:58;4.68;;;3.30;;
51122;SDS011;37162;41.724;13.346;2023-02-28T00:48:24;5.28;;;4.18;;
51122;SDS011;37162;41.724;13.346;2023-02-28T00:50:49;3.92;;;3.53;;
51122;SDS011;37162;41.724;13.346;2023-02-28T00:53:15;4.82;;;3.33;;
51122;SDS011;37162;41.724;13.346;2023-02-28T00:55:40;4.55;;;3.50;;
51122;SDS011;37162;41.724;13.346;2023-02-28T00:58:06;5.20;;;3.50;;
51122;SDS011;37162;41.724;13.346;2023-02-28T01:00:31;5.65;;;3.35;;
51122;SDS011;37162;41.724;13.346;2023-02-28T01:02:56;5.10;;;3.38;;
51122;SDS011;37162;41.724;13.346;2023-02-28T01:05:22;6.63;;;4.05;;
51122;SDS011;37162;41.724;13.346;2023-02-28T01:07:47;4.95;;;3.20;;
51122;SDS011;37162;41.724;13.346;2023-02-28T01:10:13;4.40;;;3.40;;
51122;SDS011;37162;41.724;13.346;2023-02-28T01:12:38;4.53;;;3.40;;
51122;SDS011;37162;41.724;13.346;2023-02-28T01:15:04;5.63;;;3.30;;
51122;SDS011;37162;41.724;13.346;2023-02-28T01:17:29;4.45;;;2.97;;
51122;SDS011;37162;41.724;13.346;2023-02-28T01:19:55;6.10;;;3.28;;
51122;SDS011;37162;41.724;13.346;2023-02-28T01:22:21;6.25;;;3.90;;
51122;SDS011;37162;41.724;13.346;2023-02-28T01:24:47;4.53;;;3.30;;
51122;SDS011;37162;41.724;13.346;2023-02-28T01:27:12;5.13;;;3.58;;
51122;SDS011;37162;41.724;13.346;2023-02-28T01:29:38;3.67;;;3.13;;
51122;SDS011;37162;41.724;13.346;2023-02-28T01:32:04;4.57;;;3.33;;
51122;SDS011;37162;41.724;13.346;2023-02-28T01:34:29;6.65;;;3.70;;
51122;SDS011;37162;41.724;13.346;2023-02-28T01:36:55;3.85;;;2.97;;
51122;SDS011;37162;41.724;13.346;2023-02-28T01:39:20;3.63;;;2.92;;
51122;SDS011;37162;41.724;13.346;2023-02-28T01:41:46;3.45;;;2.83;;
51122;SDS011;37162;41.724;13.346;2023-02-28T01:49:40;4.13;;;2.90;;
51122;SDS011;37162;41.724;13.346;2023-02-28T01:52:06;4.15;;;3.10;;
51122;SDS011;37162;41.724;13.346;2023-02-28T01:54:33;4.47;;;3.00;;
51122;SDS011;37162;41.724;13.346;2023-02-28T01:57:04;4.53;;;2.80;;
51122;SDS011;37162;41.724;13.346;2023-02-28T01:59:36;4.32;;;2.95;;
51122;SDS011;37162;41.724;13.346;2023-02-28T02:02:12;4.57;;;3.00;;
51122;SDS011;37162;41.724;13.346;2023-02-28T02:04:59;4.78;;;3.50;;
51122;SDS011;37162;41.724;13.346;2023-02-28T02:07:29;2.97;;;2.67;;
51122;SDS011;37162;41.724;13.346;2023-02-28T02:10:59;3.78;;;3.00;;
51122;SDS011;37162;41.724;13.346;2023-02-28T02:18:29;4.90;;;3.10;;
51122;SDS011;37162;41.724;13.346;2023-02-28T02:23:39;4.63;;;3.03;;
51122;SDS011;37162;41.724;13.346;2023-02-28T02:37:21;3.47;;;2.53;;
51122;SDS011;37162;41.724;13.346;2023-02-28T02:40:17;4.43;;;3.03;;
51122;SDS011;37162;41.724;13.346;2023-02-28T02:48:18;3.08;;;2.40;;
51122;SDS011;37162;41.724;13.346;2023-02-28T02:50:50;3.97;;;2.40;;
51122;SDS011;37162;41.724;13.346;2023-02-28T02:53:21;5.25;;;2.67;;
51122;SDS011;37162;41.724;13.346;2023-02-28T02:55:50;3.65;;;2.55;;
51122;SDS011;37162;41.724;13.346;2023-02-28T02:58:20;3.65;;;2.83;;
51122;SDS011;37162;41.724;13.346;2023-02-28T03:00:53;3.25;;;2.72;;
51122;SDS011;37162;41.724;13.346;2023-02-28T03:03:23;3.88;;;2.85;;
51122;SDS011;37162;41.724;13.346;2023-02-28T03:05:55;4.78;;;2.63;;
51122;SDS011;37162;41.724;13.346;2023-02-28T03:08:22;3.63;;;2.30;;
51122;SDS011;37162;41.724;13.346;2023-02-28T03:10:51;4.57;;;2.63;;
51122;SDS011;37162;41.724;13.346;2023-02-28T03:13:34;3.42;;;2.50;;
51122;SDS011;37162;41.724;13.346;2023-02-28T03:16:27;3.97;;;2.70;;
51122;SDS011;37162;41.724;13.346;2023-02-28T03:21:43;2.53;;;2.10;;
51122;SDS011;37162;41.724;13.346;2023-02-28T03:24:19;2.88;;;2.25;;
51122;SDS011;37162;41.724;13.346;2023-02-28T03:26:55;2.67;;;2.20;;
51122;SDS011;37162;41.724;13.346;2023-02-28T03:29:36;3.35;;;2.40;;
51122;SDS011;37162;41.724;13.346;2023-02-28T03:32:11;3.08;;;2.17;;
51122;SDS011;37162;41.724;13.346;2023-02-28T03:37:48;2.85;;;2.35;;
51122;SDS011;37162;41.724;13.346;2023-02-28T03:40:19;2.78;;;2.15;;
51122;SDS011;37162;41.724;13.346;2023-02-28T03:42:49;3.38;;;2.63;;
51122;SDS011;37162;41.724;13.346;2023-02-28T03:45:20;3.10;;;2.40;;
51122;SDS011;37162;41.724;13.346;2023-02-28T03:52:50;2.45;;;2.20;;
51122;SDS011;37162;41.724;13.346;2023-02-28T03:55:26;3.03;;;2.17;;
51122;SDS011;37162;41.724;13.346;2023-02-28T04:00:55;3.30;;;2.38;;
51122;SDS011;37162;41.724;13.346;2023-02-28T04:03:37;2.67;;;2.17;;
51122;SDS011;37162;41.724;13.346;2023-02-28T04:06:04;3.67;;;2.55;;
51122;SDS011;37162;41.724;13.346;2023-02-28T04:08:32;2.75;;;2.20;;
51122;SDS011;37162;41.724;13.346;2023-02-28T04:11:01;3.50;;;2.20;;
51122;SDS011;37162;41.724;13.346;2023-02-28T04:13:31;2.97;;;2.38;;
51122;SDS011;37162;41.724;13.346;2023-02-28T04:15:57;5.47;;;2.85;;
51122;SDS011;37162;41.724;13.346;2023-02-28T04:18:22;2.58;;;2.33;;
51122;SDS011;37162;41.724;13.346;2023-02-28T04:20:48;3.15;;;2.22;;
51122;SDS011;37162;41.724;13.346;2023-02-28T04:23:13;2.90;;;2.13;;
51122;SDS011;37162;41.724;13.346;2023-02-28T04:25:39;3.28;;;2.20;;
51122;SDS011;37162;41.724;13.346;2023-02-28T04:28:05;2.85;;;2.42;;
51122;SDS011;37162;41.724;13.346;2023-02-28T04:30:31;2.78;;;2.20;;
51122;SDS011;37162;41.724;13.346;2023-02-28T04:32:57;2.33;;;2.13;;
51122;SDS011;37162;41.724;13.346;2023-02-28T04:35:23;2.83;;;2.47;;
51122;SDS011;37162;41.724;13.346;2023-02-28T04:37:48;2.65;;;2.20;;
51122;SDS011;37162;41.724;13.346;2023-02-28T04:40:14;4.53;;;2.20;;
51122;SDS011;37162;41.724;13.346;2023-02-28T04:42:39;4.30;;;2.47;;
51122;SDS011;37162;41.724;13.346;2023-02-28T04:45:05;3.35;;;2.20;;
51122;SDS011;37162;41.724;13.346;2023-02-28T04:47:31;3.13;;;2.45;;
51122;SDS011;37162;41.724;13.346;2023-02-28T04:49:56;3.00;;;2.40;;
51122;SDS011;37162;41.724;13.346;2023-02-28T04:52:22;2.13;;;1.92;;
51122;SDS011;37162;41.724;13.346;2023-02-28T04:54:47;3.40;;;2.30;;
51122;SDS011;37162;41.724;13.346;2023-02-28T04:57:12;2.55;;;2.15;;
51122;SDS011;37162;41.724;13.346;2023-02-28T04:59:38;2.30;;;1.70;;
51122;SDS011;37162;41.724;13.346;2023-02-28T05:02:03;4.78;;;2.35;;
51122;SDS011;37162;41.724;13.346;2023-02-28T05:04:34;2.88;;;2.45;;
51122;SDS011;37162;41.724;13.346;2023-02-28T05:07:01;2.72;;;2.05;;
51122;SDS011;37162;41.724;13.346;2023-02-28T05:09:28;3.50;;;2.15;;
51122;SDS011;37162;41.724;13.346;2023-02-28T05:11:54;3.28;;;2.00;;
51122;SDS011;37162;41.724;13.346;2023-02-28T05:14:20;4.18;;;2.60;;
51122;SDS011;37162;41.724;13.346;2023-02-28T05:16:45;2.45;;;1.85;;
51122;SDS011;37162;41.724;13.346;2023-02-28T05:19:11;2.75;;;2.00;;
51122;SDS011;37162;41.724;13.346;2023-02-28T05:21:38;2.25;;;1.88;;
51122;SDS011;37162;41.724;13.346;2023-02-28T05:24:10;2.78;;;1.92;;
51122;SDS011;37162;41.724;13.346;2023-02-28T05:26:38;5.40;;;2.20;;
51122;SDS011;37162;41.724;13.346;2023-02-28T05:29:05;2.22;;;1.70;;
51122;SDS011;37162;41.724;13.346;2023-02-28T05:31:31;2.58;;;1.67;;
51122;SDS011;37162;41.724;13.346;2023-02-28T05:33:57;2.28;;;1.80;;
51122;SDS011;37162;41.724;13.346;2023-02-28T05:36:23;2.63;;;2.10;;
51122;SDS011;37162;41.724;13.346;2023-02-28T05:38:49;2.33;;;1.85;;
51122;SDS011;37162;41.724;13.346;2023-02-28T05:41:15;2.22;;;1.85;;
51122;SDS011;37162;41.724;13.346;2023-02-28T05:43:41;3.80;;;2.15;;
51122;SDS011;37162;41.724;13.346;2023-02-28T05:46:08;2.47;;;2.03;;
51122;SDS011;37162;41.724;13.346;2023-02-28T05:48:36;2.85;;;1.67;;
51122;SDS011;37162;41.724;13.346;2023-02-28T05:51:04;3.83;;;2.33;;
51122;SDS011;37162;41.724;13.346;2023-02-28T05:53:30;2.17;;;1.70;;
51122;SDS011;37162;41.724;13.346;2023-02-28T05:55:56;2.28;;;1.80;;
51122;SDS011;37162;41.724;13.346;2023-02-28T05:58:22;2.30;;;1.85;;
51122;SDS011;37162;41.724;13.346;2023-02-28T06:00:50;3.05;;;1.98;;
51122;SDS011;37162;41.724;13.346;2023-02-28T06:03:15;2.25;;;1.75;;
51122;SDS011;37162;41.724;13.346;2023-02-28T06:05:41;2.13;;;1.80;;
51122;SDS011;37162;41.724;13.346;2023-02-28T06:08:06;2.47;;;1.52;;
51122;SDS011;37162;41.724;13.346;2023-02-28T06:10:32;2.95;;;1.92;;
51122;SDS011;37162;41.724;13.346;2023-02-28T06:12:59;2.05;;;1.70;;
51122;SDS011;37162;41.724;13.346;2023-02-28T06:15:27;1.98;;;1.70;;
51122;SDS011;37162;41.724;13.346;2023-02-28T06:17:53;2.22;;;1.83;;
51122;SDS011;37162;41.724;13.346;2023-02-28T06:20:21;2.20;;;1.70;;
51122;SDS011;37162;41.724;13.346;2023-02-28T06:22:46;2.55;;;1.80;;
51122;SDS011;37162;41.724;13.346;2023-02-28T06:25:11;2.25;;;1.67;;
51122;SDS011;37162;41.724;13.346;2023-02-28T06:27:37;2.53;;;2.15;;
51122;SDS011;37162;41.724;13.346;2023-02-28T06:30:03;2.90;;;1.67;;
51122;SDS011;37162;41.724;13.346;2023-02-28T06:32:29;2.95;;;2.10;;
51122;SDS011;37162;41.724;13.346;2023-02-28T06:34:54;2.88;;;1.80;;
51122;SDS011;37162;41.724;13.346;2023-02-28T06:37:19;2.60;;;1.65;;
51122;SDS011;37162;41.724;13.346;2023-02-28T06:39:45;1.90;;;1.60;;
51122;SDS011;37162;41.724;13.346;2023-02-28T06:42:10;2.75;;;1.73;;
51122;SDS011;37162;41.724;13.346;2023-02-28T06:44:36;2.00;;;1.65;;
51122;SDS011;37162;41.724;13.346;2023-02-28T06:47:02;2.22;;;1.60;;
51122;SDS011;37162;41.724;13.346;2023-02-28T06:49:30;2.00;;;1.42;;
51122;SDS011;37162;41.724;13.346;2023-02-28T06:51:55;2.50;;;1.70;;
51122;SDS011;37162;41.724;13.346;2023-02-28T06:54:21;3.35;;;1.75;;
51122;SDS011;37162;41.724;13.346;2023-02-28T06:56:46;2.42;;;1.80;;
51122;SDS011;37162;41.724;13.346;2023-02-28T06:59:12;2.95;;;1.63;;
51122;SDS011;37162;41.724;13.346;2023-02-28T07:01:38;2.55;;;1.90;;
51122;SDS011;37162;41.724;13.346;2023-02-28T07:04:04;2.17;;;1.45;;
51122;SDS011;37162;41.724;13.346;2023-02-28T07:06:31;2.45;;;1.85;;
51122;SDS011;37162;41.724;13.346;2023-02-28T07:08:57;1.92;;;1.77;;
51122;SDS011;37162;41.724;13.346;2023-02-28T07:11:23;2.38;;;1.77;;
51122;SDS011;37162;41.724;13.346;2023-02-28T07:13:51;2.42;;;1.60;;
51122;SDS011;37162;41.724;13.346;2023-02-28T07:16:17;2.13;;;1.88;;
51122;SDS011;37162;41.724;13.346;2023-02-28T07:18:43;1.65;;;1.55;;
51122;SDS011;37162;41.724;13.346;2023-02-28T07:21:11;1.67;;;1.40;;
51122;SDS011;37162;41.724;13.346;2023-02-28T07:23:37;1.88;;;1.73;;
51122;SDS011;37162;41.724;13.346;2023-02-28T07:26:04;3.20;;;1.88;;
51122;SDS011;37162;41.724;13.346;2023-02-28T07:28:30;1.60;;;1.50;;
51122;SDS011;37162;41.724;13.346;2023-02-28T07:30:56;1.98;;;1.55;;
51122;SDS011;37162;41.724;13.346;2023-02-28T07:33:21;2.00;;;1.60;;
51122;SDS011;37162;41.724;13.346;2023-02-28T07:35:46;1.85;;;1.48;;
51122;SDS011;37162;41.724;13.346;2023-02-28T07:38:12;2.35;;;1.80;;
51122;SDS011;37162;41.724;13.346;2023-02-28T07:40:38;2.75;;;1.75;;
51122;SDS011;37162;41.724;13.346;2023-02-28T07:43:04;2.13;;;1.73;;
51122;SDS011;37162;41.724;13.346;2023-02-28T07:45:30;2.33;;;1.95;;
51122;SDS011;37162;41.724;13.346;2023-02-28T07:47:59;3.95;;;1.75;;
51122;SDS011;37162;41.724;13.346;2023-02-28T07:50:24;3.28;;;1.75;;
51122;SDS011;37162;41.724;13.346;2023-02-28T07:52:50;1.55;;;1.45;;
51122;SDS011;37162;41.724;13.346;2023-02-28T07:55:15;1.65;;;1.55;;
51122;SDS011;37162;41.724;13.346;2023-02-28T07:57:41;2.47;;;1.77;;
51122;SDS011;37162;41.724;13.346;2023-02-28T08:00:08;3.72;;;1.67;;
51122;SDS011;37162;41.724;13.346;2023-02-28T08:02:35;2.22;;;1.90;;
51122;SDS011;37162;41.724;13.346;2023-02-28T08:05:01;2.35;;;1.85;;
51122;SDS011;37162;41.724;13.346;2023-02-28T08:07:27;2.85;;;1.98;;
51122;SDS011;37162;41.724;13.346;2023-02-28T08:09:52;3.15;;;2.08;;
51122;SDS011;37162;41.724;13.346;2023-02-28T08:12:18;2.25;;;1.90;;
51122;SDS011;37162;41.724;13.346;2023-02-28T08:14:44;2.85;;;1.83;;
51122;SDS011;37162;41.724;13.346;2023-02-28T08:17:10;4.25;;;1.90;;
51122;SDS011;37162;41.724;13.346;2023-02-28T08:19:36;2.53;;;1.88;;
51122;SDS011;37162;41.724;13.346;2023-02-28T08:22:01;3.08;;;1.65;;
51122;SDS011;37162;41.724;13.346;2023-02-28T08:24:27;2.10;;;1.67;;
51122;SDS011;37162;41.724;13.346;2023-02-28T08:26:52;3.20;;;2.60;;
51122;SDS011;37162;41.724;13.346;2023-02-28T08:29:18;2.47;;;1.98;;
51122;SDS011;37162;41.724;13.346;2023-02-28T08:31:43;2.47;;;1.75;;
51122;SDS011;37162;41.724;13.346;2023-02-28T08:34:10;2.25;;;2.05;;
51122;SDS011;37162;41.724;13.346;2023-02-28T08:36:39;3.33;;;2.20;;
51122;SDS011;37162;41.724;13.346;2023-02-28T08:39:05;2.45;;;1.90;;
51122;SDS011;37162;41.724;13.346;2023-02-28T08:41:31;3.85;;;1.70;;
51122;SDS011;37162;41.724;13.346;2023-02-28T08:43:58;2.47;;;1.70;;
51122;SDS011;37162;41.724;13.346;2023-02-28T08:46:23;2.38;;;1.80;;
51122;SDS011;37162;41.724;13.346;2023-02-28T08:48:55;2.72;;;1.80;;
51122;SDS011;37162;41.724;13.346;2023-02-28T08:51:25;7.35;;;2.63;;
51122;SDS011;37162;41.724;13.346;2023-02-28T08:53:54;4.85;;;2.72;;
51122;SDS011;37162;41.724;13.346;2023-02-28T08:56:22;11.73;;;3.30;;
51122;SDS011;37162;41.724;13.346;2023-02-28T08:58:48;5.15;;;2.97;;
51122;SDS011;37162;41.724;13.346;2023-02-28T09:01:19;8.35;;;2.78;;
51122;SDS011;37162;41.724;13.346;2023-02-28T09:03:46;5.00;;;2.73;;
51122;SDS011;37162;41.724;13.346;2023-02-28T09:06:13;3.05;;;2.30;;
51122;SDS011;37162;41.724;13.346;2023-02-28T09:08:40;8.27;;;2.85;;
51122;SDS011;37162;41.724;13.346;2023-02-28T09:11:06;6.82;;;2.60;;
51122;SDS011;37162;41.724;13.346;2023-02-28T09:13:32;4.20;;;2.53;;
51122;SDS011;37162;41.724;13.346;2023-02-28T09:15:58;4.88;;;2.55;;
51122;SDS011;37162;41.724;13.346;2023-02-28T09:18:25;5.22;;;2.78;;
51122;SDS011;37162;41.724;13.346;2023-02-28T09:20:51;9.70;;;2.80;;
51122;SDS011;37162;41.724;13.346;2023-02-28T09:23:17;14.35;;;2.88;;
51122;SDS011;37162;41.724;13.346;2023-02-28T09:25:46;15.35;;;3.25;;
51122;SDS011;37162;41.724;13.346;2023-02-28T09:28:12;13.73;;;3.38;;
51122;SDS011;37162;41.724;13.346;2023-02-28T09:30:40;12.63;;;4.15;;
51122;SDS011;37162;41.724;13.346;2023-02-28T09:33:05;5.93;;;3.65;;
51122;SDS011;37162;41.724;13.346;2023-02-28T09:35:31;4.10;;;2.67;;
51122;SDS011;37162;41.724;13.346;2023-02-28T09:37:56;17.48;;;3.30;;
51122;SDS011;37162;41.724;13.346;2023-02-28T09:40:23;12.32;;;3.70;;
51122;SDS011;37162;41.724;13.346;2023-02-28T09:42:51;6.45;;;3.55;;
51122;SDS011;37162;41.724;13.346;2023-02-28T09:45:33;7.32;;;3.53;;
51122;SDS011;37162;41.724;13.346;2023-02-28T09:48:12;14.02;;;4.20;;
51122;SDS011;37162;41.724;13.346;2023-02-28T09:50:47;10.75;;;5.05;;
51122;SDS011;37162;41.724;13.346;2023-02-28T09:59:05;16.23;;;4.97;;
51122;SDS011;37162;41.724;13.346;2023-02-28T10:01:48;19.95;;;4.55;;
51122;SDS011;37162;41.724;13.346;2023-02-28T10:07:01;18.58;;;3.88;;
51122;SDS011;37162;41.724;13.346;2023-02-28T10:09:32;13.60;;;4.70;;
51122;SDS011;37162;41.724;13.346;2023-02-28T10:12:02;10.25;;;3.92;;
51122;SDS011;37162;41.724;13.346;2023-02-28T10:14:30;8.43;;;3.70;;
51122;SDS011;37162;41.724;13.346;2023-02-28T10:17:02;8.20;;;3.22;;
51122;SDS011;37162;41.724;13.346;2023-02-28T10:22:08;10.47;;;3.23;;
51122;SDS011;37162;41.724;13.346;2023-02-28T10:24:40;5.78;;;2.40;;
51122;SDS011;37162;41.724;13.346;2023-02-28T10:27:14;7.72;;;2.78;;
51122;SDS011;37162;41.724;13.346;2023-02-28T10:29:42;3.58;;;2.35;;
51122;SDS011;37162;41.724;13.346;2023-02-28T10:32:10;10.95;;;2.75;;
51122;SDS011;37162;41.724;13.346;2023-02-28T10:34:39;6.13;;;3.00;;
51122;SDS011;37162;41.724;13.346;2023-02-28T10:37:04;8.02;;;2.92;;
51122;SDS011;37162;41.724;13.346;2023-02-28T10:39:40;5.03;;;2.97;;
51122;SDS011;37162;41.724;13.346;2023-02-28T10:42:27;10.55;;;3.10;;
51122;SDS011;37162;41.724;13.346;2023-02-28T10:45:16;11.48;;;3.05;;
51122;SDS011;37162;41.724;13.346;2023-02-28T10:47:49;9.48;;;3.30;;
51122;SDS011;37162;41.724;13.346;2023-02-28T10:50:27;10.93;;;3.05;;
51122;SDS011;37162;41.724;13.346;2023-02-28T10:52:52;8.05;;;2.88;;
51122;SDS011;37162;41.724;13.346;2023-02-28T10:55:23;8.27;;;3.22;;
51122;SDS011;37162;41.724;13.346;2023-02-28T10:57:50;18.98;;;4.13;;
51122;SDS011;37162;41.724;13.346;2023-02-28T11:00:19;10.70;;;3.13;;
51122;SDS011;37162;41.724;13.346;2023-02-28T11:02:46;7.35;;;3.08;;
51122;SDS011;37162;41.724;13.346;2023-02-28T11:05:23;9.52;;;3.13;;
51122;SDS011;37162;41.724;13.346;2023-02-28T11:07:53;9.82;;;2.88;;
51122;SDS011;37162;41.724;13.346;2023-02-28T11:10:21;8.02;;;2.97;;
51122;SDS011;37162;41.724;13.346;2023-02-28T11:12:54;10.52;;;3.67;;
51122;SDS011;37162;41.724;13.346;2023-02-28T11:15:23;9.65;;;2.50;;
51122;SDS011;37162;41.724;13.346;2023-02-28T11:18:36;10.27;;;2.75;;
51122;SDS011;37162;41.724;13.346;2023-02-28T11:20:52;9.80;;;2.53;;
51122;SDS011;37162;41.724;13.346;2023-02-28T11:23:20;7.63;;;2.55;;
51122;SDS011;37162;41.724;13.346;2023-02-28T11:25:52;5.35;;;2.20;;
51122;SDS011;37162;41.724;13.346;2023-02-28T11:28:31;13.73;;;3.13;;
51122;SDS011;37162;41.724;13.346;2023-02-28T11:36:19;26.20;;;3.45;;
51122;SDS011;37162;41.724;13.346;2023-02-28T11:38:45;19.15;;;3.15;;
51122;SDS011;37162;41.724;13.346;2023-02-28T11:41:35;15.77;;;3.08;;
51122;SDS011;37162;41.724;13.346;2023-02-28T11:55:26;6.80;;;2.42;;
51122;SDS011;37162;41.724;13.346;2023-02-28T12:09:04;5.50;;;1.95;;
51122;SDS011;37162;41.724;13.346;2023-02-28T12:11:40;8.32;;;2.40;;
51122;SDS011;37162;41.724;13.346;2023-02-28T12:22:42;6.72;;;2.40;;
51122;SDS011;37162;41.724;13.346;2023-02-28T12:27:47;4.30;;;2.10;;
51122;SDS011;37162;41.724;13.346;2023-02-28T12:30:16;4.30;;;1.98;;
51122;SDS011;37162;41.724;13.346;2023-02-28T12:33:04;6.85;;;2.10;;
51122;SDS011;37162;41.724;13.346;2023-02-28T12:35:44;3.15;;;1.90;;
51122;SDS011;37162;41.724;13.346;2023-02-28T12:38:29;4.05;;;1.70;;
51122;SDS011;37162;41.724;13.346;2023-02-28T12:41:29;3.67;;;1.60;;
51122;SDS011;37162;41.724;13.346;2023-02-28T12:44:09;2.67;;;1.58;;
51122;SDS011;37162;41.724;13.346;2023-02-28T12:46:43;3.45;;;1.75;;
51122;SDS011;37162;41.724;13.346;2023-02-28T12:52:15;2.80;;;1.48;;
51122;SDS011;37162;41.724;13.346;2023-02-28T12:57:45;3.78;;;1.50;;
51122;SDS011;37162;41.724;13.346;2023-02-28T13:00:19;2.35;;;1.83;;
51122;SDS011;37162;41.724;13.346;2023-02-28T13:05:39;2.10;;;1.45;;
51122;SDS011;37162;41.724;13.346;2023-02-28T13:08:42;6.25;;;1.60;;
51122;SDS011;37162;41.724;13.346;2023-02-28T13:11:23;1.65;;;1.30;;
51122;SDS011;37162;41.724;13.346;2023-02-28T13:13:56;3.90;;;1.50;;
51122;SDS011;37162;41.724;13.346;2023-02-28T13:16:27;2.05;;;1.50;;
51122;SDS011;37162;41.724;13.346;2023-02-28T13:18:52;5.93;;;1.42;;
51122;SDS011;37162;41.724;13.346;2023-02-28T13:21:41;2.00;;;1.20;;
51122;SDS011;37162;41.724;13.346;2023-02-28T13:24:08;2.10;;;1.30;;
51122;SDS011;37162;41.724;13.346;2023-02-28T13:29:47;3.55;;;1.20;;
51122;SDS011;37162;41.724;13.346;2023-02-28T13:34:27;2.13;;;1.50;;
51122;SDS011;37162;41.724;13.346;2023-02-28T13:37:20;5.80;;;2.22;;
51122;SDS011;37162;41.724;13.346;2023-02-28T13:47:43;4.57;;;1.75;;
51122;SDS011;37162;41.724;13.346;2023-02-28T13:50:19;4.78;;;1.83;;
51122;SDS011;37162;41.724;13.346;2023-02-28T14:03:14;4.70;;;2.15;;
51122;SDS011;37162;41.724;13.346;2023-02-28T14:11:33;6.13;;;2.63;;
51122;SDS011;37162;41.724;13.346;2023-02-28T14:14:00;5.70;;;2.60;;
51122;SDS011;37162;41.724;13.346;2023-02-28T14:16:38;5.18;;;2.50;;
51122;SDS011;37162;41.724;13.346;2023-02-28T14:19:25;4.35;;;2.55;;
51122;SDS011;37162;41.724;13.346;2023-02-28T14:24:41;3.17;;;1.90;;
51122;SDS011;37162;41.724;13.346;2023-02-28T14:30:02;6.18;;;3.10;;
51122;SDS011;37162;41.724;13.346;2023-02-28T14:32:54;2.72;;;2.00;;
51122;SDS011;37162;41.724;13.346;2023-02-28T14:38:42;4.32;;;2.22;;
51122;SDS011;37162;41.724;13.346;2023-02-28T14:41:24;4.10;;;2.17;;
51122;SDS011;37162;41.724;13.346;2023-02-28T14:44:03;3.88;;;2.10;;
51122;SDS011;37162;41.724;13.346;2023-02-28T14:46:43;5.90;;;2.67;;
51122;SDS011;37162;41.724;13.346;2023-02-28T14:49:26;4.00;;;2.55;;
51122;SDS011;37162;41.724;13.346;2023-02-28T14:52:05;3.88;;;2.30;;
51122;SDS011;37162;41.724;13.346;2023-02-28T14:55:00;5.97;;;2.33;;
51122;SDS011;37162;41.724;13.346;2023-02-28T14:57:27;3.63;;;2.13;;
51122;SDS011;37162;41.724;13.346;2023-02-28T14:59:56;4.32;;;2.35;;
51122;SDS011;37162;41.724;13.346;2023-02-28T15:02:41;3.88;;;2.28;;
51122;SDS011;37162;41.724;13.346;2023-02-28T15:07:41;4.63;;;2.45;;
51122;SDS011;37162;41.724;13.346;2023-02-28T15:10:24;3.30;;;2.33;;
51122;SDS011;37162;41.724;13.346;2023-02-28T15:12:58;5.90;;;2.75;;
51122;SDS011;37162;41.724;13.346;2023-02-28T15:15:35;4.05;;;2.70;;
51122;SDS011;37162;41.724;13.346;2023-02-28T15:18:23;5.65;;;2.53;;
51122;SDS011;37162;41.724;13.346;2023-02-28T15:21:07;4.20;;;2.65;;
51122;SDS011;37162;41.724;13.346;2023-02-28T15:23:38;4.80;;;2.33;;
51122;SDS011;37162;41.724;13.346;2023-02-28T15:26:10;2.83;;;2.13;;
51122;SDS011;37162;41.724;13.346;2023-02-28T15:28:40;10.18;;;3.00;;
51122;SDS011;37162;41.724;13.346;2023-02-28T15:31:18;4.30;;;2.35;;
51122;SDS011;37162;41.724;13.346;2023-02-28T15:33:53;3.42;;;2.15;;
51122;SDS011;37162;41.724;13.346;2023-02-28T15:36:20;4.30;;;2.25;;
51122;SDS011;37162;41.724;13.346;2023-02-28T15:38:53;5.00;;;1.90;;
51122;SDS011;37162;41.724;13.346;2023-02-28T15:41:37;3.83;;;2.75;;
51122;SDS011;37162;41.724;13.346;2023-02-28T15:46:43;4.20;;;1.98;;
51122;SDS011;37162;41.724;13.346;2023-02-28T15:49:19;4.45;;;1.92;;
51122;SDS011;37162;41.724;13.346;2023-02-28T15:51:47;4.32;;;2.38;;
51122;SDS011;37162;41.724;13.346;2023-02-28T15:54:17;4.55;;;2.30;;
51122;SDS011;37162;41.724;13.346;2023-02-28T15:56:50;3.45;;;2.30;;
51122;SDS011;37162;41.724;13.346;2023-02-28T15:59:19;3.95;;;2.53;;
51122;SDS011;37162;41.724;13.346;2023-02-28T16:04:35;3.88;;;2.22;;
51122;SDS011;37162;41.724;13.346;2023-02-28T16:07:05;5.63;;;1.85;;
51122;SDS011;37162;41.724;13.346;2023-02-28T16:09:31;2.30;;;1.30;;
51122;SDS011;37162;41.724;13.346;2023-02-28T16:11:59;2.28;;;1.70;;
51122;SDS011;37162;41.724;13.346;2023-02-28T16:14:28;2.75;;;1.73;;
51122;SDS011;37162;41.724;13.346;2023-02-28T16:19:29;2.35;;;1.38;;
51122;SDS011;37162;41.724;13.346;2023-02-28T16:21:55;3.38;;;1.95;;
51122;SDS011;37162;41.724;13.346;2023-02-28T16:24:21;2.20;;;1.40;;
51122;SDS011;37162;41.724;13.346;2023-02-28T16:26:47;2.97;;;2.00;;
51122;SDS011;37162;41.724;13.346;2023-02-28T16:29:23;2.65;;;1.45;;
51122;SDS011;37162;41.724;13.346;2023-02-28T16:31:52;3.20;;;1.50;;
51122;SDS011;37162;41.724;13.346;2023-02-28T16:34:18;3.17;;;1.60;;
51122;SDS011;37162;41.724;13.346;2023-02-28T16:36:46;4.70;;;1.40;;
51122;SDS011;37162;41.724;13.346;2023-02-28T16:39:12;1.60;;;1.48;;
51122;SDS011;37162;41.724;13.346;2023-02-28T16:41:37;2.08;;;1.33;;
51122;SDS011;37162;41.724;13.346;2023-02-28T16:44:13;1.77;;;1.42;;
51122;SDS011;37162;41.724;13.346;2023-02-28T16:46:52;1.13;;;1.03;;
51122;SDS011;37162;41.724;13.346;2023-02-28T16:49:18;1.58;;;1.20;;
51122;SDS011;37162;41.724;13.346;2023-02-28T16:51:43;3.90;;;1.23;;
51122;SDS011;37162;41.724;13.346;2023-02-28T16:54:08;1.95;;;1.30;;
51122;SDS011;37162;41.724;13.346;2023-02-28T16:56:34;2.25;;;1.58;;
51122;SDS011;37162;41.724;13.346;2023-02-28T16:59:00;1.33;;;1.20;;
51122;SDS011;37162;41.724;13.346;2023-02-28T17:01:26;2.95;;;1.40;;
51122;SDS011;37162;41.724;13.346;2023-02-28T17:03:54;2.63;;;1.38;;
51122;SDS011;37162;41.724;13.346;2023-02-28T17:06:21;1.85;;;1.23;;
51122;SDS011;37162;41.724;13.346;2023-02-28T17:08:49;1.50;;;1.40;;
51122;SDS011;37162;41.724;13.346;2023-02-28T17:11:16;1.88;;;1.05;;
51122;SDS011;37162;41.724;13.346;2023-02-28T17:13:42;1.95;;;1.15;;
51122;SDS011;37162;41.724;13.346;2023-02-28T17:16:22;1.77;;;1.25;;
51122;SDS011;37162;41.724;13.346;2023-02-28T17:18:53;1.20;;;1.10;;
51122;SDS011;37162;41.724;13.346;2023-02-28T17:21:24;2.13;;;1.10;;